Valle Di Andalusia — IBTJ — position and weather

sailwx.info

Track history (hours):
 
Tides and Currents Weather Stations Pressure Air Temp Water Temp Dewpoint Dewpoint Depression Visibility Wind Speed Wind Dir Waves Ship Positions

Valle Di Andalusia

Last reported at 2015-Jan-23 12:07 UTC. Time now 2015-Jan-31 10:11 UTC.
Position N 36°37' E 014°39'.

Length 176 m; draft 9.3 m.

Type: Ship (hazmat cat A). MMSI: 247046200.

Date/timePositionNaut miles runAvg speedWind from/ knotsBaromVisibWave heightAir tempDewpointWater temp
2015-Jan-23 12:07N 36°37' E 014°39'814.5
2015-Jan-23 11:33N 36°40' E 014°30'1414.0
2015-Jan-23 10:34N 36°46' E 014°15'1414.2
2015-Jan-23 09:34N 36°53' E 013°59'1414.1
2015-Jan-23 08:33N 36°60' E 013°43'8313.8
2015-Jan-23 02:32N 37°42' E 012°13'14614.4
2015-Jan-22 16:25N 38°53' E 009°31'1214.0
2015-Jan-22 15:33N 38°59' E 009°17'1312.8
2015-Jan-22 14:33N 39°05' E 009°03'1 0.9
2015-Jan-22 13:31N 39°05' E 009°02'0 0.0
2015-Jan-22 12:30N 39°05' E 009°02'0 0.0
2015-Jan-22 11:33N 39°05' E 009°02'0 0.0
2015-Jan-22 10:33N 39°05' E 009°02'0 0.0
2015-Jan-22 09:32N 39°05' E 009°02'0 0.0
2015-Jan-22 08:32N 39°05' E 009°02'0 0.0
2015-Jan-22 07:31N 39°05' E 009°02'0 0.0
2015-Jan-22 06:31N 39°05' E 009°02'0 0.0
2015-Jan-22 05:33N 39°05' E 009°02'0 0.0
2015-Jan-22 04:33N 39°05' E 009°02'0 0.0
2015-Jan-22 03:33N 39°05' E 009°02'0 0.0
2015-Jan-22 02:32N 39°05' E 009°02'0 0.0
2015-Jan-22 01:32N 39°05' E 009°02'0 0.0
2015-Jan-22 00:31N 39°05' E 009°02'0 0.0
2015-Jan-21 23:31N 39°05' E 009°02'0 0.0
2015-Jan-21 22:49N 39°05' E 009°02'0 0.0
2015-Jan-21 22:45N 39°05' E 009°02'0 0.0
2015-Jan-21 22:33N 39°05' E 009°02'0 0.0
2015-Jan-21 21:33N 39°05' E 009°02'0 0.0
2015-Jan-21 20:33N 39°05' E 009°02'0 0.0
2015-Jan-21 19:32N 39°05' E 009°02'0 0.0
2015-Jan-21 18:32N 39°05' E 009°02'0 0.0
2015-Jan-21 17:31N 39°05' E 009°02'0 0.0
2015-Jan-21 16:31N 39°05' E 009°02'0 0.0
2015-Jan-21 15:33N 39°05' E 009°02'0 0.0
2015-Jan-21 14:33N 39°05' E 009°02'0 0.0
2015-Jan-21 13:32N 39°05' E 009°02'0 0.1
2015-Jan-21 12:33N 39°05' E 009°02'2 2.1
2015-Jan-21 11:28N 39°04' E 009°04'0 0.0
2015-Jan-21 10:31N 39°04' E 009°04'0 0.1
2015-Jan-21 09:34N 39°04' E 009°04'0 0.0
2015-Jan-21 08:33N 39°04' E 009°04'0 0.1
2015-Jan-21 07:33N 39°04' E 009°04'2 1.7
2015-Jan-21 06:33N 39°03' E 009°07'1212.3
2015-Jan-21 05:33N 38°60' E 009°22'1311.5
2015-Jan-21 04:27N 39°01' E 009°38'2913.5
2015-Jan-21 02:16N 39°26' E 009°57'  
2015-Jan-15 09:19N 39°24' E 009°57'2514.1
2015-Jan-15 07:33N 39°03' E 009°41'1512.2
2015-Jan-15 06:22N 38°59' E 009°23'1113.8
2015-Jan-15 05:33N 39°03' E 009°09'6 6.0
2015-Jan-15 04:33N 39°05' E 009°02'0 0.0
2015-Jan-15 03:33N 39°05' E 009°02'0 0.0
2015-Jan-15 02:33N 39°05' E 009°02'0 0.0
2015-Jan-15 01:33N 39°05' E 009°02'0 0.0
2015-Jan-15 00:33N 39°05' E 009°02'0 0.0
2015-Jan-14 23:33N 39°05' E 009°02'0 0.0
2015-Jan-14 22:33N 39°05' E 009°02'0 0.0
2015-Jan-14 21:33N 39°05' E 009°02'0 0.0
2015-Jan-14 20:33N 39°05' E 009°02'0 0.0
2015-Jan-14 19:33N 39°05' E 009°02'0 0.0
2015-Jan-14 18:33N 39°05' E 009°02'0 0.0
2015-Jan-14 17:33N 39°05' E 009°02'0 0.0
2015-Jan-14 16:33N 39°05' E 009°02'0 0.0
2015-Jan-14 15:33N 39°05' E 009°02'0 0.0
2015-Jan-14 14:33N 39°05' E 009°02'0 0.0
2015-Jan-14 13:33N 39°05' E 009°02'0 0.0
2015-Jan-14 12:33N 39°05' E 009°02'0 0.0
2015-Jan-14 11:33N 39°05' E 009°02'0 0.0
2015-Jan-14 10:33N 39°05' E 009°02'0 0.0
2015-Jan-14 09:33N 39°05' E 009°02'0 0.0
2015-Jan-14 08:33N 39°05' E 009°02'0 0.0
2015-Jan-14 07:33N 39°05' E 009°02'0 0.0
2015-Jan-14 06:33N 39°05' E 009°02'0 0.0
2015-Jan-14 05:33N 39°05' E 009°02'0 0.0
2015-Jan-14 04:33N 39°05' E 009°02'0 0.0
2015-Jan-14 03:33N 39°05' E 009°02'0 0.0
2015-Jan-14 02:33N 39°05' E 009°02'0 0.0
2015-Jan-14 01:33N 39°05' E 009°02'0 0.0
2015-Jan-14 00:34N 39°05' E 009°02'2 2.4
2015-Jan-13 23:33N 39°03' E 009°04'0 0.1
2015-Jan-13 22:32N 39°03' E 009°04'0 0.1
2015-Jan-13 21:32N 39°03' E 009°04'0 0.0
2015-Jan-13 20:32N 39°03' E 009°04'0 0.0
2015-Jan-13 19:31N 39°03' E 009°04'0 0.0
2015-Jan-13 18:31N 39°03' E 009°04'0 0.0
2015-Jan-13 17:33N 39°03' E 009°04'0 0.0
2015-Jan-13 16:33N 39°03' E 009°04'0 0.0
2015-Jan-13 15:32N 39°03' E 009°04'0 0.0
2015-Jan-13 14:32N 39°03' E 009°04'0 0.0
2015-Jan-13 13:32N 39°03' E 009°04'0 0.0
2015-Jan-13 12:28N 39°03' E 009°04'  
Track history (hours):
 
Tides and Currents Weather Stations Pressure Air Temp Water Temp Dewpoint Dewpoint Depression Visibility Wind Speed Wind Dir Waves Ship Positions

Valle Di Andalusia

Last reported at 2015-Jan-23 12:07 UTC. Time now 2015-Jan-31 10:11 UTC.
Position N 36°37' E 014°39'.

Length 176 m; draft 9.3 m.

Type: Ship (hazmat cat A). MMSI: 247046200.

Date/timePositionNaut miles runAvg speedWind from/ knotsBaromVisibWave heightAir tempDewpointWater temp
2015-Jan-23 12:07N 36°37' E 014°39'814.5
2015-Jan-23 11:33N 36°40' E 014°30'1414.0
2015-Jan-23 10:34N 36°46' E 014°15'1414.2
2015-Jan-23 09:34N 36°53' E 013°59'1414.1
2015-Jan-23 08:33N 36°60' E 013°43'8313.8
2015-Jan-23 02:32N 37°42' E 012°13'14614.4
2015-Jan-22 16:25N 38°53' E 009°31'1214.0
2015-Jan-22 15:33N 38°59' E 009°17'1312.8
2015-Jan-22 14:33N 39°05' E 009°03'1 0.9
2015-Jan-22 13:31N 39°05' E 009°02'0 0.0
2015-Jan-22 12:30N 39°05' E 009°02'0 0.0
2015-Jan-22 11:33N 39°05' E 009°02'0 0.0
2015-Jan-22 10:33N 39°05' E 009°02'0 0.0
2015-Jan-22 09:32N 39°05' E 009°02'0 0.0
2015-Jan-22 08:32N 39°05' E 009°02'0 0.0
2015-Jan-22 07:31N 39°05' E 009°02'0 0.0
2015-Jan-22 06:31N 39°05' E 009°02'0 0.0
2015-Jan-22 05:33N 39°05' E 009°02'0 0.0
2015-Jan-22 04:33N 39°05' E 009°02'0 0.0
2015-Jan-22 03:33N 39°05' E 009°02'0 0.0
2015-Jan-22 02:32N 39°05' E 009°02'0 0.0
2015-Jan-22 01:32N 39°05' E 009°02'0 0.0
2015-Jan-22 00:31N 39°05' E 009°02'0 0.0
2015-Jan-21 23:31N 39°05' E 009°02'0 0.0
2015-Jan-21 22:49N 39°05' E 009°02'0 0.0
2015-Jan-21 22:45N 39°05' E 009°02'0 0.0
2015-Jan-21 22:33N 39°05' E 009°02'0 0.0
2015-Jan-21 21:33N 39°05' E 009°02'0 0.0
2015-Jan-21 20:33N 39°05' E 009°02'0 0.0
2015-Jan-21 19:32N 39°05' E 009°02'0 0.0
2015-Jan-21 18:32N 39°05' E 009°02'0 0.0
2015-Jan-21 17:31N 39°05' E 009°02'0 0.0
2015-Jan-21 16:31N 39°05' E 009°02'0 0.0
2015-Jan-21 15:33N 39°05' E 009°02'0 0.0
2015-Jan-21 14:33N 39°05' E 009°02'0 0.0
2015-Jan-21 13:32N 39°05' E 009°02'0 0.1
2015-Jan-21 12:33N 39°05' E 009°02'2 2.1
2015-Jan-21 11:28N 39°04' E 009°04'0 0.0
2015-Jan-21 10:31N 39°04' E 009°04'0 0.1
2015-Jan-21 09:34N 39°04' E 009°04'0 0.0
2015-Jan-21 08:33N 39°04' E 009°04'0 0.1
2015-Jan-21 07:33N 39°04' E 009°04'2 1.7
2015-Jan-21 06:33N 39°03' E 009°07'1212.3
2015-Jan-21 05:33N 38°60' E 009°22'1311.5
2015-Jan-21 04:27N 39°01' E 009°38'2913.5
2015-Jan-21 02:16N 39°26' E 009°57'  
2015-Jan-15 09:19N 39°24' E 009°57'2514.1
2015-Jan-15 07:33N 39°03' E 009°41'1512.2
2015-Jan-15 06:22N 38°59' E 009°23'1113.8
2015-Jan-15 05:33N 39°03' E 009°09'6 6.0
2015-Jan-15 04:33N 39°05' E 009°02'0 0.0
2015-Jan-15 03:33N 39°05' E 009°02'0 0.0
2015-Jan-15 02:33N 39°05' E 009°02'0 0.0
2015-Jan-15 01:33N 39°05' E 009°02'0 0.0
2015-Jan-15 00:33N 39°05' E 009°02'0 0.0
2015-Jan-14 23:33N 39°05' E 009°02'0 0.0
2015-Jan-14 22:33N 39°05' E 009°02'0 0.0
2015-Jan-14 21:33N 39°05' E 009°02'0 0.0
2015-Jan-14 20:33N 39°05' E 009°02'0 0.0
2015-Jan-14 19:33N 39°05' E 009°02'0 0.0
2015-Jan-14 18:33N 39°05' E 009°02'0 0.0
2015-Jan-14 17:33N 39°05' E 009°02'0 0.0
2015-Jan-14 16:33N 39°05' E 009°02'0 0.0
2015-Jan-14 15:33N 39°05' E 009°02'0 0.0
2015-Jan-14 14:33N 39°05' E 009°02'0 0.0
2015-Jan-14 13:33N 39°05' E 009°02'0 0.0
2015-Jan-14 12:33N 39°05' E 009°02'0 0.0
2015-Jan-14 11:33N 39°05' E 009°02'0 0.0
2015-Jan-14 10:33N 39°05' E 009°02'0 0.0
2015-Jan-14 09:33N 39°05' E 009°02'0 0.0
2015-Jan-14 08:33N 39°05' E 009°02'0 0.0
2015-Jan-14 07:33N 39°05' E 009°02'0 0.0
2015-Jan-14 06:33N 39°05' E 009°02'0 0.0
2015-Jan-14 05:33N 39°05' E 009°02'0 0.0
2015-Jan-14 04:33N 39°05' E 009°02'0 0.0
2015-Jan-14 03:33N 39°05' E 009°02'0 0.0
2015-Jan-14 02:33N 39°05' E 009°02'0 0.0
2015-Jan-14 01:33N 39°05' E 009°02'0 0.0
2015-Jan-14 00:34N 39°05' E 009°02'2 2.4
2015-Jan-13 23:33N 39°03' E 009°04'0 0.1
2015-Jan-13 22:32N 39°03' E 009°04'0 0.1
2015-Jan-13 21:32N 39°03' E 009°04'0 0.0
2015-Jan-13 20:32N 39°03' E 009°04'0 0.0
2015-Jan-13 19:31N 39°03' E 009°04'0 0.0
2015-Jan-13 18:31N 39°03' E 009°04'0 0.0
2015-Jan-13 17:33N 39°03' E 009°04'0 0.0
2015-Jan-13 16:33N 39°03' E 009°04'0 0.0
2015-Jan-13 15:32N 39°03' E 009°04'0 0.0
2015-Jan-13 14:32N 39°03' E 009°04'0 0.0
2015-Jan-13 13:32N 39°03' E 009°04'0 0.0
2015-Jan-13 12:28N 39°03' E 009°04'  

Dump ship's entire track history